Time;durP1;ratioP1;P1;durP2;ratioP2;P2;SDS_P1;SDS_P2;PMS_P1;PMS_P2;Temp;Humidity;BMP_temperature;BMP_pressure;BME280_temperature;BME280_humidity;BME280_pressure;Samples;Min_cycle;Max_cycle;Signal;HPM_P1;HPM_P2
2023/10/03 00:01:35;;;;;;;45.70;22.27;;;;;;;19.31;56.92;96849.25;5032736;28;20050;-79
2023/10/03 00:04:07;;;;;;;48.35;22.23;;;;;;;19.28;56.82;96847.06;5015332;28;20095;-79
2023/10/03 00:06:38;;;;;;;45.45;21.85;;;;;;;19.30;57.07;96844.19;5032993;28;20420;-79
2023/10/03 00:09:11;;;;;;;42.88;21.60;;;;;;;19.29;56.96;96842.59;5032942;28;20406;-79
2023/10/03 00:11:44;;;;;;;46.80;22.05;;;;;;;19.27;56.88;96844.66;5032629;28;20453;-79
2023/10/03 00:14:57;;;;;;;47.00;21.65;;;;;;;19.24;57.06;96839.81;5032737;28;20420;-79
2023/10/03 00:18:06;;;;;;;47.20;20.85;;;;;;;19.20;57.09;96850.06;5029492;28;20054;-80
2023/10/03 00:21:16;;;;;;;42.25;21.00;;;;;;;19.13;57.14;96836.13;5019771;28;20077;-80
2023/10/03 00:26:59;;;;;;;42.05;21.10;;;;;;;18.97;57.77;96836.84;5035917;28;20053;-79
2023/10/03 00:30:00;;;;;;;44.08;20.90;;;;;;;18.88;58.08;96836.38;5022421;28;20045;-80
2023/10/03 00:33:10;;;;;;;44.97;20.77;;;;;;;18.78;58.45;96833.47;5032737;28;20071;-80
2023/10/03 00:35:53;;;;;;;41.17;21.10;;;;;;;18.65;59.04;96831.81;5036195;28;20049;-80
2023/10/03 00:39:08;;;;;;;43.97;21.25;;;;;;;18.55;59.31;96823.66;5035897;28;20045;-79
2023/10/03 00:48:08;;;;;;;40.25;20.23;;;;;;;18.41;59.50;96820.41;5089900;27;20374;-81
2023/10/03 00:50:37;;;;;;;39.95;20.45;;;;;;;18.38;59.38;96819.03;5090038;28;20048;-81
2023/10/03 00:53:09;;;;;;;47.60;20.83;;;;;;;18.35;59.57;96811.56;5089729;28;20063;-81
2023/10/03 00:55:39;;;;;;;42.17;20.08;;;;;;;18.35;59.40;96810.75;5104495;28;20044;-83
2023/10/03 00:58:17;;;;;;;44.67;21.40;;;;;;;18.35;59.32;96816.03;5115515;28;20028;-83
2023/10/03 01:00:48;;;;;;;48.50;22.35;;;;;;;18.32;59.28;96812.81;5100807;28;20052;-81
2023/10/03 01:03:28;;;;;;;38.70;19.63;;;;;;;18.33;59.62;96808.34;5093297;28;20052;-81
2023/10/03 01:05:58;;;;;;;41.17;20.33;;;;;;;18.33;59.26;96808.34;5090705;28;20048;-81
2023/10/03 01:08:27;;;;;;;40.88;19.60;;;;;;;18.37;59.25;96804.22;5090266;28;20059;-81
2023/10/03 01:10:58;;;;;;;45.03;20.05;;;;;;;18.41;59.13;96810.66;5090371;28;20052;-81
2023/10/03 01:13:25;;;;;;;40.55;20.42;;;;;;;18.43;59.12;96808.59;5090325;28;20488;-82
2023/10/03 01:15:54;;;;;;;44.42;21.27;;;;;;;18.45;58.83;96809.16;5089950;28;20048;-80
2023/10/03 01:18:22;;;;;;;39.90;20.38;;;;;;;18.46;58.94;96802.06;5091389;28;20044;-81
2023/10/03 01:20:55;;;;;;;42.85;20.52;;;;;;;18.43;59.02;96802.50;5089954;28;20062;-81
2023/10/03 01:23:28;;;;;;;;;;;;;;;18.41;58.77;96809.84;5090803;28;20045;-81
2023/10/03 01:25:56;;;;;;;39.00;19.77;;;;;;;18.40;58.99;96808.25;5090517;28;20027;-81
2023/10/03 01:28:25;;;;;;;42.08;20.00;;;;;;;18.39;59.06;96799.53;5090464;28;20303;-80
2023/10/03 01:30:52;;;;;;;41.60;20.50;;;;;;;18.35;59.12;96789.63;5090051;28;20097;-81
2023/10/03 01:33:26;;;;;;;37.35;19.33;;;;;;;18.36;59.51;96797.31;5089834;28;20047;-81
2023/10/03 01:35:54;;;;;;;38.50;19.85;;;;;;;18.38;59.24;96792.63;5090291;28;20052;-81
2023/10/03 01:38:21;;;;;;;40.22;19.52;;;;;;;18.38;59.29;96791.81;5089541;28;20051;-80
2023/10/03 01:40:52;;;;;;;39.45;19.52;;;;;;;18.39;59.62;96796.06;5089358;28;20048;-81
2023/10/03 01:43:20;;;;;;;42.05;19.15;;;;;;;18.36;59.41;96786.75;5089275;28;20115;-81
2023/10/03 01:45:48;;;;;;;36.55;18.30;;;;;;;18.38;59.49;96784.69;5089210;28;20080;-79
2023/10/03 01:48:16;;;;;;;40.55;19.10;;;;;;;18.38;59.26;96771.47;5089050;28;20477;-81
2023/10/03 01:50:45;;;;;;;35.45;18.17;;;;;;;18.40;59.43;96773.91;5089281;28;20480;-81
2023/10/03 01:53:12;;;;;;;42.97;20.52;;;;;;;18.41;59.25;96772.84;5088903;28;20056;-81
2023/10/03 01:55:40;;;;;;;37.03;18.80;;;;;;;18.39;59.18;96761.72;5089218;28;20450;-81
2023/10/03 01:58:09;;;;;;;36.33;16.63;;;;;;;18.40;59.22;96765.97;5081722;28;20053;-81
2023/10/03 02:00:37;;;;;;;34.92;17.20;;;;;;;18.41;59.31;96768.41;5075578;28;20056;-81
2023/10/03 02:03:07;;;;;;;35.60;18.35;;;;;;;18.46;59.06;96763.25;5075797;28;20530;-81
2023/10/03 02:05:37;;;;;;;36.63;17.45;;;;;;;18.47;58.99;96756.91;5074991;28;20139;-80
2023/10/03 02:08:12;;;;;;;34.13;17.80;;;;;;;18.46;58.91;96765.88;5075355;28;20040;-81
2023/10/03 02:10:40;;;;;;;35.78;17.67;;;;;;;18.43;58.76;96753.13;5075364;28;20052;-81
2023/10/03 02:13:12;;;;;;;37.38;17.40;;;;;;;18.41;58.99;96757.84;5074963;28;20058;-80
2023/10/03 02:15:40;;;;;;;34.75;16.67;;;;;;;18.41;58.98;96755.19;5075182;28;20052;-81
2023/10/03 02:18:09;;;;;;;35.08;17.70;;;;;;;18.42;58.79;96754.16;5075168;28;20045;-81
2023/10/03 02:20:47;;;;;;;31.85;16.27;;;;;;;18.42;58.82;96759.44;5074883;28;20048;-81
2023/10/03 02:23:19;;;;;;;32.28;16.95;;;;;;;18.43;58.51;96750.50;5074663;28;20052;-81
2023/10/03 02:25:48;;;;;;;30.50;16.08;;;;;;;18.40;58.61;96753.56;5074793;28;20060;-81
2023/10/03 02:28:18;;;;;;;36.05;16.48;;;;;;;18.39;58.79;96749.34;5083364;28;20074;-82
2023/10/03 02:30:48;;;;;;;33.13;16.38;;;;;;;18.39;58.91;96746.69;5080367;28;20048;-81
2023/10/03 02:33:17;;;;;;;31.25;15.40;;;;;;;18.40;58.68;96737.72;5075860;28;20449;-80
2023/10/03 02:35:47;;;;;;;33.17;16.15;;;;;;;18.40;58.79;96740.38;5075479;28;20049;-82
2023/10/03 02:38:24;;;;;;;31.45;15.50;;;;;;;18.40;58.82;96735.09;5075128;28;20045;-81
2023/10/03 02:40:55;;;;;;;30.30;15.82;;;;;;;18.39;58.94;96736.13;5074922;28;20132;-81
2023/10/03 02:43:24;;;;;;;30.50;15.35;;;;;;;18.40;59.04;96737.72;5074638;28;20045;-81
2023/10/03 02:45:52;;;;;;;32.10;14.80;;;;;;;18.40;58.94;96734.28;5074324;28;20090;-81
2023/10/03 02:48:21;;;;;;;28.58;15.05;;;;;;;18.36;59.04;96744.50;5074556;28;20045;-81
2023/10/03 02:50:50;;;;;;;30.15;15.65;;;;;;;18.36;59.10;96733.94;5074550;28;20105;-81
2023/10/03 02:53:19;;;;;;;36.42;15.98;;;;;;;18.35;59.16;96731.53;5074166;28;20040;-81
2023/10/03 02:55:48;;;;;;;29.63;15.20;;;;;;;18.31;59.23;96731.19;5073898;28;20079;-81
2023/10/03 02:58:19;;;;;;;32.40;15.73;;;;;;;18.27;59.33;96733.47;5074059;28;20571;-81
2023/10/03 03:00:49;;;;;;;31.05;15.57;;;;;;;18.28;59.72;96731.66;5073801;28;20586;-80
2023/10/03 03:03:17;;;;;;;31.38;15.10;;;;;;;18.27;59.43;96724.75;5077759;28;20062;-81
2023/10/03 03:05:48;;;;;;;34.65;15.25;;;;;;;18.27;59.49;96724.75;5080245;28;20052;-81
2023/10/03 03:08:23;;;;;;;27.60;15.27;;;;;;;18.24;59.28;96725.22;5079681;28;20060;-82
2023/10/03 03:10:55;;;;;;;28.10;15.20;;;;;;;18.23;59.88;96731.50;5073998;28;20049;-81
2023/10/03 03:13:24;;;;;;;27.00;13.45;;;;;;;18.24;59.66;96730.47;5073741;28;20053;-81
2023/10/03 03:15:59;;;;;;;28.80;15.07;;;;;;;18.23;59.71;96732.31;5073796;28;20056;-81
2023/10/03 03:18:31;;;;;;;31.17;16.25;;;;;;;18.25;59.71;96729.44;5073914;28;20523;-80
2023/10/03 03:20:59;;;;;;;32.23;15.77;;;;;;;18.25;59.52;96727.59;5073868;28;20048;-80
2023/10/03 03:23:30;;;;;;;29.30;15.20;;;;;;;18.23;59.63;96723.59;5073484;28;20308;-81
2023/10/03 03:26:12;;;;;;;28.50;14.75;;;;;;;18.25;59.49;96722.31;5073352;28;20496;-81
2023/10/03 03:28:40;;;;;;;27.83;14.48;;;;;;;18.26;59.44;96721.31;5073415;28;20049;-81
2023/10/03 03:31:17;;;;;;;32.88;15.63;;;;;;;18.21;59.61;96720.34;5073387;28;20048;-81
2023/10/03 03:33:47;;;;;;;27.42;14.23;;;;;;;18.14;59.74;96727.59;5073209;28;20071;-81
2023/10/03 03:36:19;;;;;;;29.83;14.75;;;;;;;18.08;59.72;96727.47;5077777;28;20060;-79
2023/10/03 03:38:47;;;;;;;29.10;15.10;;;;;;;18.03;59.86;96722.03;5082897;28;20416;-79
2023/10/03 03:41:15;;;;;;;27.23;14.43;;;;;;;17.98;59.96;96718.50;5084440;28;20044;-79
2023/10/03 03:43:43;;;;;;;26.83;13.25;;;;;;;17.94;60.15;96710.22;5083733;28;20088;-80
2023/10/03 03:46:12;;;;;;;27.65;15.00;;;;;;;17.89;60.21;96707.44;5084466;28;20048;-79
2023/10/03 03:48:40;;;;;;;30.45;13.95;;;;;;;17.84;60.26;96707.31;5074605;28;20102;-79
2023/10/03 03:51:11;;;;;;;25.60;13.95;;;;;;;17.82;60.13;96712.00;5073297;28;20060;-79
2023/10/03 03:53:39;;;;;;;26.15;13.25;;;;;;;17.81;60.10;96710.38;5073125;28;20122;-79
2023/10/03 03:56:07;;;;;;;26.52;13.15;;;;;;;17.81;60.27;96715.66;5073233;28;20044;-79
2023/10/03 03:58:37;;;;;;;27.75;14.75;;;;;;;17.82;60.41;96718.09;5072896;28;20041;-79
2023/10/03 04:01:12;;;;;;;25.08;13.15;;;;;;;17.82;60.23;96719.91;5072525;28;20052;-78
2023/10/03 04:03:42;;;;;;;28.35;14.48;;;;;;;17.81;60.48;96720.94;5089641;28;20048;-79
2023/10/03 04:06:10;;;;;;;27.23;13.38;;;;;;;17.76;60.24;96715.53;5094118;28;20048;-79
2023/10/03 04:08:38;;;;;;;28.63;13.88;;;;;;;17.72;60.31;96733.63;5079529;28;20446;-79
2023/10/03 04:11:22;;;;;;;25.95;14.70;;;;;;;17.70;60.57;96725.13;5073308;28;20048;-79
2023/10/03 04:13:55;;;;;;;26.20;13.15;;;;;;;17.67;60.33;96725.59;5072932;28;20044;-78
2023/10/03 04:16:26;;;;;;;27.35;13.48;;;;;;;17.65;60.49;96725.00;5072596;28;20487;-81
2023/10/03 04:18:56;;;;;;;24.77;12.55;;;;;;;17.61;60.48;96718.56;5072808;28;20055;-81
2023/10/03 04:21:27;;;;;;;28.75;14.05;;;;;;;17.56;60.63;96716.59;5072451;28;20098;-81
2023/10/03 04:23:55;;;;;;;26.80;13.95;;;;;;;17.54;60.46;96716.00;5072443;28;20047;-79
2023/10/03 04:26:24;;;;;;;25.33;13.40;;;;;;;17.55;60.52;96719.44;5072819;28;20056;-79
2023/10/03 04:28:52;;;;;;;27.40;13.60;;;;;;;17.53;60.49;96724.94;5072535;28;20477;-79
2023/10/03 04:31:19;;;;;;;25.77;12.43;;;;;;;17.50;60.48;96720.91;5072410;28;20100;-79
2023/10/03 04:33:47;;;;;;;23.95;12.27;;;;;;;17.53;60.73;96719.66;5072350;28;20106;-78
2023/10/03 04:36:17;;;;;;;27.63;13.45;;;;;;;17.53;60.55;96717.03;5073567;28;20051;-79
2023/10/03 04:38:45;;;;;;;26.02;13.90;;;;;;;17.52;60.41;96712.78;5076229;28;20063;-79
2023/10/03 04:41:13;;;;;;;25.98;13.38;;;;;;;17.50;60.46;96714.84;5081401;28;20500;-78
2023/10/03 04:43:41;;;;;;;26.67;13.93;;;;;;;17.46;60.53;96709.19;5071991;28;20052;-79
2023/10/03 04:46:11;;;;;;;26.88;12.50;;;;;;;17.43;60.42;96703.59;5072261;28;20126;-78
2023/10/03 04:48:39;;;;;;;24.77;13.10;;;;;;;17.41;60.35;96706.44;5072406;28;20500;-78
2023/10/03 04:51:07;;;;;;;27.60;12.70;;;;;;;17.38;60.49;96706.06;5072416;28;20054;-78
2023/10/03 04:53:36;;;;;;;22.92;12.75;;;;;;;17.36;60.23;96708.13;5072368;28;20048;-78
2023/10/03 04:56:04;;;;;;;19.63;11.45;;;;;;;17.34;60.49;96712.81;5072444;28;20393;-81
2023/10/03 04:58:32;;;;;;;24.25;12.45;;;;;;;17.32;60.37;96712.22;5072145;28;20098;-81
2023/10/03 05:01:00;;;;;;;24.15;12.85;;;;;;;17.31;60.36;96716.69;5072329;28;20049;-78
2023/10/03 05:03:28;;;;;;;24.65;12.32;;;;;;;17.32;60.69;96705.13;5071963;28;20044;-78
2023/10/03 05:05:56;;;;;;;23.48;12.13;;;;;;;17.32;60.38;96701.66;5071956;28;20063;-78
2023/10/03 05:08:24;;;;;;;22.90;12.32;;;;;;;17.32;60.39;96702.50;5072314;28;20070;-78
2023/10/03 05:10:54;;;;;;;24.08;12.45;;;;;;;17.30;60.19;96708.00;5072347;28;20431;-78
2023/10/03 05:13:22;;;;;;;25.05;13.23;;;;;;;17.30;60.39;96708.00;5072329;28;20106;-79
2023/10/03 05:15:53;;;;;;;24.70;12.38;;;;;;;17.29;59.91;96708.19;5072269;28;20045;-78
2023/10/03 05:18:21;;;;;;;25.83;12.73;;;;;;;17.28;60.18;96707.41;5072576;28;20113;-78
2023/10/03 05:20:49;;;;;;;21.83;11.57;;;;;;;17.28;60.08;96707.41;5072062;28;20056;-78
2023/10/03 05:23:17;;;;;;;23.05;12.45;;;;;;;17.29;59.96;96713.47;5072270;28;20420;-78
2023/10/03 05:25:45;;;;;;;22.65;12.07;;;;;;;17.30;60.14;96715.09;5072034;28;20509;-78
2023/10/03 05:28:16;;;;;;;23.48;12.20;;;;;;;17.30;60.19;96710.63;5072231;28;20102;-78
2023/10/03 05:30:45;;;;;;;21.20;11.55;;;;;;;17.30;60.05;96708.00;5072743;28;20482;-78
2023/10/03 05:33:13;;;;;;;21.77;12.20;;;;;;;17.30;59.90;96713.25;5073805;28;20051;-81
2023/10/03 05:35:41;;;;;;;21.50;10.88;;;;;;;17.33;59.93;96714.66;5076724;28;20045;-80
2023/10/03 05:38:09;;;;;;;18.88;11.00;;;;;;;17.34;59.93;96718.06;5075920;28;20110;-77
2023/10/03 05:40:37;;;;;;;22.52;11.75;;;;;;;17.35;59.86;96714.44;5076030;28;20094;-78
2023/10/03 05:43:07;;;;;;;21.08;11.93;;;;;;;17.35;59.95;96717.06;5076255;28;20074;-79
2023/10/03 05:45:36;;;;;;;19.20;10.60;;;;;;;17.35;60.05;96725.78;5076326;28;20079;-78
2023/10/03 05:48:05;;;;;;;21.45;11.07;;;;;;;17.37;59.87;96718.44;5075599;28;20049;-78
2023/10/03 05:50:34;;;;;;;23.92;11.60;;;;;;;17.38;59.70;96722.72;5075157;28;20498;-80
2023/10/03 05:53:06;;;;;;;19.17;10.98;;;;;;;17.41;59.79;96716.19;5075191;28;20049;-80
2023/10/03 05:55:34;;;;;;;21.52;11.35;;;;;;;17.42;59.80;96713.31;5075033;28;20052;-80
2023/10/03 05:58:03;;;;;;;21.58;10.52;;;;;;;17.43;59.81;96719.41;5075212;28;20044;-80
2023/10/03 06:00:31;;;;;;;19.27;11.13;;;;;;;17.44;59.77;96721.81;5076086;28;20053;-80
2023/10/03 06:03:00;;;;;;;21.73;10.50;;;;;;;17.48;59.81;96722.97;5075760;28;20048;-80
2023/10/03 06:05:29;;;;;;;25.00;11.98;;;;;;;17.52;59.57;96720.69;5075223;28;20419;-80
2023/10/03 06:07:57;;;;;;;19.67;11.20;;;;;;;17.55;59.70;96722.88;5075230;28;20087;-80
2023/10/03 06:10:24;;;;;;;18.00;10.35;;;;;;;17.56;59.68;96718.41;5075451;28;20488;-80
2023/10/03 06:12:54;;;;;;;22.55;11.38;;;;;;;17.57;59.63;96720.84;5075391;28;20076;-81
2023/10/03 06:15:24;;;;;;;23.52;11.77;;;;;;;17.60;59.61;96727.50;5074902;28;20531;-81
2023/10/03 06:17:52;;;;;;;19.77;10.18;;;;;;;17.62;59.62;96723.63;5076233;28;20055;-82
2023/10/03 06:20:24;;;;;;;17.73;9.88;;;;;;;17.67;59.62;96726.38;5076449;28;20053;-81
2023/10/03 06:22:52;;;;;;;19.48;10.68;;;;;;;17.71;59.47;96726.75;5075359;28;20158;-81
2023/10/03 06:25:20;;;;;;;17.88;10.63;;;;;;;17.75;59.34;96719.97;5075326;28;20098;-80
2023/10/03 06:27:47;;;;;;;22.38;10.38;;;;;;;17.76;59.51;96723.44;5075247;28;20569;-81
2023/10/03 06:30:15;;;;;;;21.05;11.20;;;;;;;17.78;59.32;96729.31;5074920;28;20045;-80
2023/10/03 06:32:44;;;;;;;19.55;10.55;;;;;;;17.80;59.36;96728.03;5075388;28;20098;-80
2023/10/03 06:35:12;;;;;;;17.80;10.05;;;;;;;17.83;59.31;96729.47;5074799;28;20597;-81
2023/10/03 06:37:41;;;;;;;17.80;9.48;;;;;;;17.86;59.37;96729.81;5075083;28;20496;-81
2023/10/03 06:40:13;;;;;;;19.15;10.98;;;;;;;17.94;59.21;96744.53;5075086;28;20080;-81
2023/10/03 06:42:41;;;;;;;21.42;9.80;;;;;;;18.08;59.06;96732.75;5075079;28;20135;-81
2023/10/03 06:45:09;;;;;;;19.00;10.00;;;;;;;18.25;58.83;96734.72;5075220;28;20079;-80
2023/10/03 06:47:38;;;;;;;18.13;10.07;;;;;;;18.42;58.35;96746.22;5075034;28;20581;-80
2023/10/03 06:50:08;;;;;;;19.17;10.30;;;;;;;18.63;57.98;96733.50;5082180;28;20075;-81
2023/10/03 06:52:35;;;;;;;20.48;11.63;;;;;;;18.83;57.81;96741.91;5082692;28;20048;-81
2023/10/03 06:55:06;;;;;;;18.42;9.90;;;;;;;19.03;57.16;96741.56;5077382;28;20078;-82
2023/10/03 06:57:36;;;;;;;18.20;9.73;;;;;;;19.24;56.73;96750.72;5077894;28;20135;-82
2023/10/03 07:00:04;;;;;;;20.55;10.43;;;;;;;19.39;56.39;96747.56;5079991;28;20047;-82
2023/10/03 07:02:32;;;;;;;20.30;10.55;;;;;;;19.56;55.94;96750.28;5085725;28;20084;-81
2023/10/03 07:04:59;;;;;;;19.60;10.18;;;;;;;19.74;55.56;96752.81;5084272;28;20079;-80
2023/10/03 07:07:27;;;;;;;18.00;9.77;;;;;;;19.94;55.20;96754.19;5081901;28;20076;-80
2023/10/03 07:09:55;;;;;;;17.67;10.00;;;;;;;20.11;54.63;96752.38;5084325;28;20549;-82
2023/10/03 07:12:25;;;;;;;18.30;9.60;;;;;;;20.33;54.16;96752.50;5095745;28;20048;-82
2023/10/03 07:14:52;;;;;;;21.05;9.93;;;;;;;20.54;53.88;96750.97;5090410;28;20076;-81
2023/10/03 07:17:20;;;;;;;17.42;10.07;;;;;;;20.77;53.13;96755.34;5079215;28;20536;-81
2023/10/03 07:19:48;;;;;;;16.27;9.55;;;;;;;20.98;52.82;96752.97;5078146;28;20098;-81
2023/10/03 07:22:18;;;;;;;18.52;9.10;;;;;;;21.21;52.53;96757.25;5077196;28;20557;-81
2023/10/03 07:24:46;;;;;;;17.15;9.48;;;;;;;21.45;51.73;96763.16;5078316;28;20044;-81
2023/10/03 07:27:15;;;;;;;18.90;10.13;;;;;;;21.66;50.97;96761.53;5077804;28;20547;-81
2023/10/03 07:29:44;;;;;;;15.35;8.77;;;;;;;21.89;50.55;96762.31;5076263;28;20491;-81
2023/10/03 07:32:14;;;;;;;18.05;9.90;;;;;;;22.13;50.40;96755.66;5076078;28;20053;-81
2023/10/03 07:34:43;;;;;;;17.13;9.35;;;;;;;22.46;49.54;96761.81;5076210;28;20419;-81
2023/10/03 07:37:11;;;;;;;19.30;9.57;;;;;;;22.71;48.75;96757.72;5075434;28;20474;-80
2023/10/03 07:39:39;;;;;;;20.27;10.05;;;;;;;22.91;48.43;96765.03;5075946;28;20097;-81
2023/10/03 07:42:08;;;;;;;18.63;9.10;;;;;;;23.14;48.00;96763.91;5076100;28;20681;-80
2023/10/03 07:44:37;;;;;;;19.00;9.90;;;;;;;23.40;46.92;96764.81;5075470;28;20350;-80
2023/10/03 07:47:06;;;;;;;17.98;8.82;;;;;;;23.64;46.29;96770.50;5075715;28;20139;-80
2023/10/03 07:49:33;;;;;;;18.67;8.90;;;;;;;23.94;45.45;96763.69;5076928;28;20076;-80
2023/10/03 07:52:04;;;;;;;14.02;8.32;;;;;;;24.29;44.91;96770.13;5076247;28;20052;-80
2023/10/03 07:54:33;;;;;;;14.30;8.75;;;;;;;24.68;43.14;96773.88;5075272;28;20486;-80
2023/10/03 07:57:05;;;;;;;13.27;7.83;;;;;;;25.33;41.52;96761.78;5075262;28;20048;-80
2023/10/03 07:59:33;;;;;;;12.02;7.93;;;;;;;26.23;39.71;96756.25;5075425;28;20304;-81
2023/10/03 08:02:05;;;;;;;14.40;9.15;;;;;;;27.01;38.09;96767.94;5075464;28;20474;-80
2023/10/03 08:04:37;;;;;;;16.90;9.18;;;;;;;27.48;36.97;96755.63;5074177;28;20049;-80
2023/10/03 08:07:05;;;;;;;16.33;7.93;;;;;;;27.32;37.12;96759.59;5074309;28;20058;-81
2023/10/03 08:09:33;;;;;;;14.15;8.05;;;;;;;27.02;37.40;96760.69;5075424;28;20074;-80
2023/10/03 08:12:11;;;;;;;16.52;8.73;;;;;;;26.90;37.72;96756.53;5075930;28;20048;-80
2023/10/03 08:14:40;;;;;;;13.45;8.05;;;;;;;26.95;37.64;96769.06;5074330;28;20052;-80
2023/10/03 08:17:11;;;;;;;14.25;8.18;;;;;;;27.11;37.89;96764.34;5074704;28;20559;-80
2023/10/03 08:19:40;;;;;;;14.13;8.43;;;;;;;27.32;37.49;96759.59;5074674;28;20102;-80
2023/10/03 08:22:12;;;;;;;15.40;9.00;;;;;;;27.54;37.23;96753.72;5074463;28;20153;-80
2023/10/03 08:24:43;;;;;;;14.35;8.02;;;;;;;27.75;36.22;96764.97;5080269;28;20053;-79
2023/10/03 08:27:18;;;;;;;12.98;8.10;;;;;;;27.94;36.62;96763.13;5078858;28;20048;-81
2023/10/03 08:29:50;;;;;;;13.63;7.65;;;;;;;28.17;36.22;96768.69;5075787;28;20253;-81
2023/10/03 08:32:18;;;;;;;16.73;8.20;;;;;;;28.29;36.22;96774.41;5076053;28;20079;-81
2023/10/03 08:34:48;;;;;;;14.27;7.95;;;;;;;28.34;35.77;96766.28;5075053;28;20135;-81
2023/10/03 08:37:21;;;;;;;13.57;8.00;;;;;;;28.32;35.55;96760.44;5075287;28;20052;-81
2023/10/03 08:39:50;;;;;;;16.25;8.23;;;;;;;28.28;36.18;96766.66;5075796;28;20052;-81
2023/10/03 08:42:21;;;;;;;13.57;7.28;;;;;;;28.38;36.30;96760.34;5074418;28;20048;-80
2023/10/03 08:44:51;;;;;;;10.77;7.03;;;;;;;28.53;35.74;96762.81;5073250;28;20044;-78
2023/10/03 08:47:28;;;;;;;15.52;8.52;;;;;;;28.69;35.78;96764.16;5072309;28;20135;-80
2023/10/03 08:50:10;;;;;;;12.65;6.70;;;;;;;28.90;35.13;96761.09;5073729;28;20523;-80
2023/10/03 08:52:46;;;;;;;13.75;7.53;;;;;;;29.14;34.84;96760.97;5074323;28;20056;-80
2023/10/03 08:55:19;;;;;;;10.63;5.43;;;;;;;29.40;34.19;96763.94;5073952;28;20066;-81
2023/10/03 08:57:47;;;;;;;;;;;;;;;29.64;34.17;96766.41;5074854;28;20500;-81
2023/10/03 09:00:16;;;;;;;8.15;4.53;;;;;;;29.90;32.98;96760.53;5074182;28;19927;-80
2023/10/03 09:02:46;;;;;;;7.05;4.50;;;;;;;30.26;32.29;96768.56;5081289;28;20080;-81
2023/10/03 09:05:20;;;;;;;7.55;4.05;;;;;;;30.78;30.89;96768.16;5075830;28;20052;-81
2023/10/03 09:07:49;;;;;;;8.65;4.90;;;;;;;31.28;30.29;96764.47;5075856;28;20504;-81
2023/10/03 09:10:23;;;;;;;6.63;4.38;;;;;;;31.61;29.82;96763.00;5079336;28;20526;-81
2023/10/03 09:12:52;;;;;;;8.32;4.47;;;;;;;32.01;29.27;96756.72;5080397;28;20056;-80
2023/10/03 09:15:22;;;;;;;21.20;4.43;;;;;;;32.42;28.45;96764.34;5079698;28;20044;-81
2023/10/03 09:17:51;;;;;;;7.53;4.20;;;;;;;32.90;28.10;96761.72;5079458;28;20049;-81
2023/10/03 09:20:31;;;;;;;8.23;4.43;;;;;;;33.29;26.95;96762.56;5078348;28;20045;-81
2023/10/03 09:23:05;;;;;;;5.72;3.42;;;;;;;33.62;26.55;96760.03;5078457;28;20044;-81
2023/10/03 09:25:33;;;;;;;6.22;4.00;;;;;;;33.96;26.66;96764.44;5077849;28;20053;-81
2023/10/03 09:28:05;;;;;;;6.22;3.95;;;;;;;34.33;25.55;96750.28;5078956;28;20127;-81
2023/10/03 09:30:37;;;;;;;11.45;4.07;;;;;;;34.63;25.73;96745.56;5078336;28;20060;-81
2023/10/03 09:33:06;;;;;;;7.82;4.25;;;;;;;34.84;25.31;96743.59;5078002;28;20423;-81
2023/10/03 09:35:36;;;;;;;6.60;4.15;;;;;;;34.98;25.23;96751.38;5079032;28;20049;-81
2023/10/03 09:38:06;;;;;;;4.55;3.10;;;;;;;35.08;24.92;96752.88;5079023;28;20056;-81
2023/10/03 09:40:49;;;;;;;6.68;3.75;;;;;;;35.25;24.88;96749.19;5078214;28;20051;-80
2023/10/03 09:43:19;;;;;;;5.63;3.88;;;;;;;35.44;24.43;96735.06;5078438;28;20057;-81
2023/10/03 09:45:47;;;;;;;4.90;3.83;;;;;;;35.55;24.45;96735.38;5077775;28;20511;-81
2023/10/03 09:48:16;;;;;;;5.63;3.72;;;;;;;35.63;24.60;96737.22;5078263;28;20500;-81
2023/10/03 09:50:51;;;;;;;5.30;3.45;;;;;;;35.66;23.98;96745.47;5077770;28;20052;-80
2023/10/03 09:53:27;;;;;;;6.93;4.07;;;;;;;35.62;24.25;96739.13;5078617;28;20057;-81
2023/10/03 09:55:56;;;;;;;9.07;3.85;;;;;;;35.61;24.56;96737.53;5078325;28;20052;-81
2023/10/03 09:58:25;;;;;;;7.40;4.45;;;;;;;35.63;24.26;96729.84;5078546;28;20071;-81
2023/10/03 10:00:53;;;;;;;6.22;3.95;;;;;;;35.66;24.53;96731.09;5078522;28;20048;-80
2023/10/03 10:03:26;;;;;;;6.18;3.55;;;;;;;35.74;24.40;96734.81;5077696;28;20488;-81
2023/10/03 10:06:12;;;;;;;8.45;4.10;;;;;;;35.81;24.45;96735.03;5078717;28;20131;-81
2023/10/03 10:08:48;;;;;;;8.95;4.25;;;;;;;35.85;24.31;96734.00;5078788;28;20075;-81
2023/10/03 10:11:16;;;;;;;6.55;4.10;;;;;;;35.91;24.81;96734.56;5078008;28;20056;-81
2023/10/03 10:14:02;;;;;;;7.47;4.07;;;;;;;36.01;24.49;96736.78;5077813;28;20056;-81
2023/10/03 10:16:33;;;;;;;6.00;4.20;;;;;;;36.18;24.32;96726.81;5082287;28;20070;-80
2023/10/03 10:19:04;;;;;;;6.93;4.13;;;;;;;36.27;23.96;96724.72;5094845;28;20063;-80
2023/10/03 10:21:37;;;;;;;6.95;4.03;;;;;;;36.31;24.20;96722.91;5090847;28;20086;-80
2023/10/03 10:24:28;;;;;;;5.95;4.13;;;;;;;36.55;24.23;96743.72;5088006;28;20063;-80
2023/10/03 10:26:59;;;;;;;6.50;4.00;;;;;;;36.84;23.70;96725.44;5086974;28;20048;-81
2023/10/03 10:29:28;;;;;;;5.82;4.07;;;;;;;37.05;23.39;96731.41;5086216;28;20056;-80
2023/10/03 10:31:58;;;;;;;4.55;3.67;;;;;;;37.27;22.96;96727.31;5084651;28;20048;-81
2023/10/03 10:34:32;;;;;;;7.05;4.47;;;;;;;37.41;22.44;96723.34;5078344;28;20083;-81
2023/10/03 10:37:03;;;;;;;4.45;3.25;;;;;;;37.53;22.92;96728.69;5082615;28;20052;-81
2023/10/03 10:40:17;;;;;;;4.65;3.80;;;;;;;37.56;23.28;96724.47;5078988;28;20139;-80
2023/10/03 10:43:16;;;;;;;5.63;4.00;;;;;;;37.50;22.69;96710.31;5078481;28;20048;-80
2023/10/03 10:45:49;;;;;;;5.30;4.28;;;;;;;37.26;23.04;96703.97;5077217;28;20048;-81
2023/10/03 10:48:18;;;;;;;7.25;4.53;;;;;;;37.11;23.53;96702.06;5077415;28;20060;-81
2023/10/03 10:51:12;;;;;;;7.50;4.50;;;;;;;37.14;23.78;96709.50;5077564;28;20052;-81
2023/10/03 10:53:44;;;;;;;5.68;4.18;;;;;;;37.31;23.20;96684.66;5076707;28;20048;-81
2023/10/03 10:56:13;;;;;;;6.20;3.78;;;;;;;37.48;22.81;96686.19;5076689;28;20051;-81
2023/10/03 10:58:52;;;;;;;5.63;4.40;;;;;;;37.62;22.64;96682.25;5079730;28;20108;-81
2023/10/03 11:01:20;;;;;;;6.28;4.43;;;;;;;37.75;22.74;96669.28;5078716;28;20463;-81
2023/10/03 11:03:50;;;;;;;8.13;4.10;;;;;;;38.02;22.24;96673.75;5078731;28;20044;-81
2023/10/03 11:06:19;;;;;;;6.32;4.05;;;;;;;38.60;21.48;96675.63;5078033;28;20057;-81
2023/10/03 11:08:49;;;;;;;6.28;3.30;;;;;;;38.96;21.62;96669.97;5077638;28;20462;-81
2023/10/03 11:11:17;;;;;;;7.90;3.88;;;;;;;38.96;21.63;96665.31;5076948;28;20044;-81
2023/10/03 11:13:46;;;;;;;7.88;4.10;;;;;;;38.92;21.51;96678.88;5087924;28;20048;-81
2023/10/03 11:16:25;;;;;;;4.68;3.53;;;;;;;39.13;21.46;96658.56;5078635;28;20094;-81
2023/10/03 11:18:54;;;;;;;5.80;3.85;;;;;;;39.44;20.77;96657.44;5078546;28;20049;-82
2023/10/03 11:21:23;;;;;;;6.45;3.70;;;;;;;39.50;20.83;96655.19;5077569;28;20059;-81
2023/10/03 11:24:11;;;;;;;4.80;3.97;;;;;;;39.38;20.03;96669.03;5076210;28;20575;-81
2023/10/03 11:26:47;;;;;;;7.00;3.42;;;;;;;39.19;20.42;96654.34;5076968;28;20550;-81
2023/10/03 11:29:17;;;;;;;4.40;3.22;;;;;;;38.89;20.75;96655.03;5076549;28;20048;-81
2023/10/03 11:31:45;;;;;;;4.30;3.45;;;;;;;38.57;21.31;96648.28;5075565;28;20186;-81
2023/10/03 11:34:28;;;;;;;6.25;3.72;;;;;;;38.21;21.85;96651.16;5075423;28;20059;-81
2023/10/03 11:36:56;;;;;;;4.70;2.95;;;;;;;38.00;21.59;96656.94;5075464;28;20052;-81
2023/10/03 11:39:26;;;;;;;5.40;2.90;;;;;;;37.85;21.81;96652.38;5074975;28;20086;-81
2023/10/03 11:41:53;;;;;;;4.15;3.10;;;;;;;37.99;21.36;96649.94;5075491;28;20045;-81
2023/10/03 11:44:22;;;;;;;5.47;3.20;;;;;;;38.23;21.32;96656.25;5075082;28;20056;-81
2023/10/03 11:46:50;;;;;;;8.15;3.25;;;;;;;38.66;20.68;96655.09;5074846;28;20109;-81
2023/10/03 11:49:17;;;;;;;6.40;3.28;;;;;;;39.20;20.05;96649.69;5074746;28;20048;-80
2023/10/03 11:51:47;;;;;;;3.50;3.08;;;;;;;39.66;19.72;96646.81;5074227;28;20557;-81